Terminal Aerodrome Forecast
Issued by NWS

Current Version | Previous Version | Text Only | Print | Product List | Glossary Off
Versions: 1 2 3 4 5 6 7 8 9 10 11 12 13 14 15 16 17 18 19 20 21 22 23 24 25 26

000
FTUS41 KRLX 310547
TAFCKB
TAF
KCKB 310547Z 3106/0106 VRB03KT P6SM SCT100
     FM311200 22007KT P6SM BKN050
     FM311400 22008G15KT P6SM VCSH BKN035
      TEMPO 3114/3117 5SM -SHRA
     FM312100 22007KT P6SM VCTS BKN040CB BKN080
     FM010200 VRB03KT 5SM SHRA BR BKN035
     FM010500 VRB03KT 4SM -SHRA BR BKN025=

USA.gov is the U.S. government's official web portal to all federal, state and local government web resources and services.